Terminal Aerodrome Forecast
Issued by NWS North Platte, NE

Home | Current Version | Previous Version | Graphics & Text | Print | Product List | Glossary On
Versions: 1 2 3 4 5 6 7 8 9 10 11 12 13 14 15 16 17 18 19 20
000
FTUS43 KLBF 051400 AAA
TAFVTN
TAF AMD
KVTN 051434Z 0515/0612 10006KT P6SM OVC008
      TEMPO 0516/0517 6SM -DZ SCT008 OVC025
     FM051700 13013KT P6SM OVC025
      TEMPO 0520/0524 6SM -TSRA OVC025CB
     FM060000 15014KT P6SM OVC020 PROB30 0600/0606 6SM SHRA OVC015=

USA.gov is the U.S. government's official web portal to all federal, state and local government web resources and services.